Time;durP1;ratioP1;P1;durP2;ratioP2;P2;SDS_P1;SDS_P2;PMS_P1;PMS_P2;Temp;Humidity;BMP_temperature;BMP_pressure;BME280_temperature;BME280_humidity;BME280_pressure;Samples;Min_cycle;Max_cycle;Signal;HPM_P1;HPM_P2
2022/05/18 00:02:23;;;;;;;;;;;;;;;;;;5015433;28;117608;-64
2022/05/18 00:04:49;;;;;;;;;;;;;;;;;;5033640;27;137589;-64
2022/05/18 00:07:15;;;;;;;;;;;;;;;;;;5035551;27;126199;-64
2022/05/18 00:09:41;;;;;;;;;;;;;;;;;;5014794;28;135340;-64
2022/05/18 00:12:08;;;;;;;;;;;;;;;;;;5015711;27;136431;-64
2022/05/18 00:14:34;;;;;;;;;;;;;;;;;;5016155;27;105764;-65
2022/05/18 00:17:03;;;;;;;;;;;;;;;;;;5016431;28;106082;-64
2022/05/18 00:19:29;;;;;;;;;;;;;;;;;;5015617;27;106933;-64
2022/05/18 00:21:55;;;;;;;;;;;;;;;;;;5014343;27;118897;-64
2022/05/18 00:24:22;;;;;;;;;;;;;;;;;;5014753;28;128203;-65
2022/05/18 00:26:48;;;;;;;;;;;;;;;;;;5019688;27;135831;-64
2022/05/18 00:29:14;;;;;;;;;;;;;;;;;;5037143;27;117617;-64
2022/05/18 00:31:41;;;;;;;;;;;;;;;;;;5020999;27;135372;-64
2022/05/18 00:34:07;;;;;;;;;;;;;;;;;;5014955;27;118650;-64
2022/05/18 00:36:33;;;;;;;;;;;;;;;;;;5014694;27;136499;-67
2022/05/18 00:39:00;;;;;;;;;;;;;;;;;;5014808;27;136461;-64
2022/05/18 00:41:27;;;;;;;;;;;;;;;;;;5019647;27;117667;-64
2022/05/18 00:43:54;;;;;;;;;;;;;;;;;;5024365;27;136887;-64
2022/05/18 00:46:20;;;;;;;;;;;;;;;;;;5028682;27;135685;-64
2022/05/18 00:48:49;;;;;;;;;;;;;;;;;;5014162;27;117267;-64
2022/05/18 00:51:15;;;;;;;;;;;;;;;;;;5017228;27;135280;-64
2022/05/18 00:53:42;;;;;;;;;;;;;;;;;;5014396;27;118861;-64
2022/05/18 00:56:08;;;;;;;;;;;;;;;;;;5014058;28;135768;-64
2022/05/18 00:58:34;;;;;;;;;;;;;;;;;;5014240;27;137075;-66
2022/05/18 01:03:35;;;;;;;;;;;;;;;;;;4931635;28;106864;-64
2022/05/18 01:06:01;;;;;;;;;;;;;;;;;;4919007;28;136065;-64
2022/05/18 01:08:27;;;;;;;;;;;;;;;;;;4914649;28;119481;-64
2022/05/18 01:10:54;;;;;;;;;;;;;;;;;;4917431;28;108507;-64
2022/05/18 01:13:20;;;;;;;;;;;;;;;;;;4918763;28;135958;-64
2022/05/18 01:15:46;;;;;;;;;;;;;;;;;;4916367;28;135117;-65
2022/05/18 01:18:13;;;;;;;;;;;;;;;;;;4914962;28;137083;-64
2022/05/18 01:20:39;;;;;;;;;;;;;;;;;;4915054;28;118793;-64
2022/05/18 01:23:05;;;;;;;;;;;;;;;;;;4917516;28;106791;-64
2022/05/18 01:25:32;;;;;;;;;;;;;;;;;;4915817;28;133992;-64
2022/05/18 01:27:58;;;;;;;;;;;;;;;;;;4916323;28;116839;-64
2022/05/18 01:30:24;;;;;;;;;;;;;;;;;;4920876;28;122367;-64
2022/05/18 01:32:51;;;;;;;;;;;;;;;;;;4928141;28;120022;-64
2022/05/18 01:35:17;;;;;;;;;;;;;;;;;;4918584;28;118013;-64
2022/05/18 01:37:44;;;;;;;;;;;;;;;;;;4915662;28;135685;-64
2022/05/18 01:40:10;;;;;;;;;;;;;;;;;;4916014;28;106077;-64
2022/05/18 01:42:37;;;;;;;;;;;;;;;;;;4915365;28;137146;-64
2022/05/18 01:45:03;;;;;;;;;;;;;;;;;;4914965;28;137734;-63
2022/05/18 01:47:29;;;;;;;;;;;;;;;;;;4916146;28;118336;-63
2022/05/18 01:49:56;;;;;;;;;;;;;;;;;;4915111;28;133925;-64
2022/05/18 01:52:22;;;;;;;;;;;;;;;;;;4914167;28;135806;-65
2022/05/18 01:54:48;;;;;;;;;;;;;;;;;;4920095;28;105560;-64
2022/05/18 01:57:14;;;;;;;;;;;;;;;;;;4914245;28;136941;-64
2022/05/18 01:59:41;;;;;;;;;;;;;;;;;;4915765;28;120415;-63
2022/05/18 02:02:10;;;;;;;;;;;;;;;;;;4926141;28;106795;-64
2022/05/18 02:04:37;;;;;;;;;;;;;;;;;;4914983;28;112384;-64
2022/05/18 02:07:03;;;;;;;;;;;;;;;;;;4916416;28;117359;-63
2022/05/18 02:09:29;;;;;;;;;;;;;;;;;;4915872;28;106601;-64
2022/05/18 02:11:55;;;;;;;;;;;;;;;;;;4914623;28;138061;-64
2022/05/18 02:14:22;;;;;;;;;;;;;;;;;;4915259;28;118212;-65
2022/05/18 02:16:48;;;;;;;;;;;;;;;;;;4918393;28;117444;-65
2022/05/18 02:19:15;;;;;;;;;;;;;;;;;;4914998;28;118584;-64
2022/05/18 02:21:41;;;;;;;;;;;;;;;;;;4915520;28;106634;-64
2022/05/18 02:24:08;;;;;;;;;;;;;;;;;;4914063;28;135716;-64
2022/05/18 02:26:34;;;;;;;;;;;;;;;;;;4921731;28;117507;-66
2022/05/18 02:29:00;;;;;;;;;;;;;;;;;;4934923;28;136228;-64
2022/05/18 02:31:26;;;;;;;;;;;;;;;;;;4918501;28;107403;-63
2022/05/18 02:33:53;;;;;;;;;;;;;;;;;;4915347;28;119540;-64
2022/05/18 02:36:19;;;;;;;;;;;;;;;;;;4913675;28;136587;-64
2022/05/18 02:38:45;;;;;;;;;;;;;;;;;;4918496;28;123408;-63
2022/05/18 02:41:12;;;;;;;;;;;;;;;;;;4914867;28;136460;-63
2022/05/18 02:43:38;;;;;;;;;;;;;;;;;;4913974;28;137044;-63
2022/05/18 02:46:04;;;;;;;;;;;;;;;;;;4914376;28;118687;-64
2022/05/18 02:48:31;;;;;;;;;;;;;;;;;;4915592;28;136608;-63
2022/05/18 02:50:57;;;;;;;;;;;;;;;;;;4914369;28;107291;-64
2022/05/18 02:53:23;;;;;;;;;;;;;;;;;;4914621;28;118175;-64
2022/05/18 02:56:08;;;;;;;;;;;;;;;;;;4915227;28;135303;-63
2022/05/18 02:58:34;;;;;;;;;;;;;;;;;;4925962;28;107215;-65
2022/05/18 03:01:01;;;;;;;;;;;;;;;;;;4928046;28;118888;-64
2022/05/18 03:03:27;;;;;;;;;;;;;;;;;;4933579;28;133792;-64
2022/05/18 03:05:53;;;;;;;;;;;;;;;;;;4920420;28;118066;-63
2022/05/18 03:08:20;;;;;;;;;;;;;;;;;;4919295;28;106401;-63
2022/05/18 03:10:46;;;;;;;;;;;;;;;;;;4916791;28;137083;-63
2022/05/18 03:13:12;;;;;;;;;;;;;;;;;;4931966;28;109195;-63
2022/05/18 03:15:38;;;;;;;;;;;;;;;;;;4932413;28;136475;-63
2022/05/18 03:18:05;;;;;;;;;;;;;;;;;;4916252;28;137055;-64
2022/05/18 03:23:33;;;;;;;;;;;;;;;;;;4940281;28;137890;-64
2022/05/18 03:25:59;;;;;;;;;;;;;;;;;;4919742;28;119471;-63
2022/05/18 03:28:25;;;;;;;;;;;;;;;;;;4929311;28;113318;-64
2022/05/18 03:30:52;;;;;;;;;;;;;;;;;;4917146;28;135526;-63
2022/05/18 03:33:18;;;;;;;;;;;;;;;;;;4916981;28;118700;-64
2022/05/18 03:35:45;;;;;;;;;;;;;;;;;;4916252;28;135230;-63
2022/05/18 03:38:11;;;;;;;;;;;;;;;;;;4916896;28;136172;-63
2022/05/18 03:40:41;;;;;;;;;;;;;;;;;;4917583;28;116601;-63
2022/05/18 03:43:07;;;;;;;;;;;;;;;;;;4916235;28;135028;-63
2022/05/18 03:45:33;;;;;;;;;;;;;;;;;;4920040;28;135667;-63
2022/05/18 03:48:00;;;;;;;;;;;;;;;;;;4917087;28;138125;-63
2022/05/18 03:50:28;;;;;;;;;;;;;;;;;;4915613;28;125609;-63
2022/05/18 03:52:54;;;;;;;;;;;;;;;;;;4917609;28;118248;-63
2022/05/18 03:55:20;;;;;;;;;;;;;;;;;;4917315;28;136404;-63
2022/05/18 03:57:47;;;;;;;;;;;;;;;;;;4926541;28;136317;-63
2022/05/18 04:00:13;;;;;;;;;;;;;;;;;;4916242;28;119840;-63
2022/05/18 04:02:42;;;;;;;;;;;;;;;;;;4916571;28;138205;-63
2022/05/18 04:05:09;;;;;;;;;;;;;;;;;;4930703;28;117834;-63
2022/05/18 04:07:35;;;;;;;;;;;;;;;;;;4928281;28;136140;-63
2022/05/18 04:10:01;;;;;;;;;;;;;;;;;;4916629;28;136992;-64
2022/05/18 04:12:27;;;;;;;;;;;;;;;;;;4916917;28;106434;-63
2022/05/18 04:14:54;;;;;;;;;;;;;;;;;;4916647;28;137841;-63
2022/05/18 04:17:20;;;;;;;;;;;;;;;;;;4916244;28;137268;-63
2022/05/18 04:19:47;;;;;;;;;;;;;;;;;;4916390;28;113196;-63
2022/05/18 04:22:13;;;;;;;;;;;;;;;;;;4916008;28;136365;-63
2022/05/18 04:24:39;;;;;;;;;;;;;;;;;;4915852;28;137745;-63
2022/05/18 04:27:06;;;;;;;;;;;;;;;;;;4920457;28;119477;-64
2022/05/18 04:29:32;;;;;;;;;;;;;;;;;;4932688;28;135781;-63
2022/05/18 04:32:03;;;;;;;;;;;;;;;;;;4924164;28;117431;-63
2022/05/18 04:34:29;;;;;;;;;;;;;;;;;;4916699;28;135286;-63
2022/05/18 04:36:55;;;;;;;;;;;;;;;;;;4915971;28;137249;-62
2022/05/18 04:39:22;;;;;;;;;;;;;;;;;;4915907;28;118901;-63
2022/05/18 04:41:48;;;;;;;;;;;;;;;;;;4915988;28;136274;-62
2022/05/18 04:44:14;;;;;;;;;;;;;;;;;;4915908;28;137545;-63
2022/05/18 04:46:41;;;;;;;;;;;;;;;;;;4930201;28;118624;-62
2022/05/18 04:49:07;;;;;;;;;;;;;;;;;;4918503;28;136442;-63
2022/05/18 04:51:34;;;;;;;;;;;;;;;;;;4916135;28;112884;-62
2022/05/18 04:54:00;;;;;;;;;;;;;;;;;;4917954;28;107101;-63
2022/05/18 04:56:26;;;;;;;;;;;;;;;;;;4925600;28;106678;-63
2022/05/18 04:58:53;;;;;;;;;;;;;;;;;;4921475;28;117894;-62
2022/05/18 05:01:19;;;;;;;;;;;;;;;;;;4916072;28;133307;-63
2022/05/18 05:03:45;;;;;;;;;;;;;;;;;;4915129;28;136927;-65
2022/05/18 05:06:12;;;;;;;;;;;;;;;;;;4915810;28;116160;-63
2022/05/18 05:08:39;;;;;;;;;;;;;;;;;;4916848;28;117783;-63
2022/05/18 05:11:05;;;;;;;;;;;;;;;;;;4918902;28;136317;-62
2022/05/18 05:13:31;;;;;;;;;;;;;;;;;;4915780;28;134992;-63
2022/05/18 05:15:57;;;;;;;;;;;;;;;;;;4916064;28;124189;-62
2022/05/18 05:18:24;;;;;;;;;;;;;;;;;;4915388;28;120892;-62
2022/05/18 05:20:50;;;;;;;;;;;;;;;;;;4913759;28;136321;-62
2022/05/18 05:23:16;;;;;;;;;;;;;;;;;;4915158;28;136337;-63
2022/05/18 05:25:43;;;;;;;;;;;;;;;;;;4918766;28;117617;-62
2022/05/18 05:28:09;;;;;;;;;;;;;;;;;;4927886;28;137499;-62
2022/05/18 05:30:35;;;;;;;;;;;;;;;;;;4915466;28;137351;-65
2022/05/18 05:33:01;;;;;;;;;;;;;;;;;;4919363;28;118437;-62
2022/05/18 05:35:28;;;;;;;;;;;;;;;;;;4913864;28;137864;-62
2022/05/18 05:37:55;;;;;;;;;;;;;;;;;;4914783;28;118179;-62
2022/05/18 05:40:21;;;;;;;;;;;;;;;;;;4914876;28;136425;-66
2022/05/18 05:42:47;;;;;;;;;;;;;;;;;;4915250;28;136464;-64
2022/05/18 05:45:14;;;;;;;;;;;;;;;;;;4914570;28;118695;-62
2022/05/18 05:47:40;;;;;;;;;;;;;;;;;;4913823;28;138017;-63
2022/05/18 05:50:13;;;;;;;;;;;;;;;;;;4913630;28;135824;-64
2022/05/18 05:52:40;;;;;;;;;;;;;;;;;;4914996;28;118379;-63
2022/05/18 05:55:06;;;;;;;;;;;;;;;;;;4918944;28;136369;-63
2022/05/18 05:57:33;;;;;;;;;;;;;;;;;;4915919;28;106467;-63
2022/05/18 06:00:02;;;;;;;;;;;;;;;;;;4915277;28;136295;-63
2022/05/18 06:02:37;;;;;;;;;;;;;;;;;;4914651;28;106107;-64
2022/05/18 06:05:03;;;;;;;;;;;;;;;;;;4915310;28;118289;-63
2022/05/18 06:07:30;;;;;;;;;;;;;;;;;;4915244;28;136461;-63
2022/05/18 06:09:56;;;;;;;;;;;;;;;;;;4929603;28;138425;-63
2022/05/18 06:12:22;;;;;;;;;;;;;;;;;;4917088;28;119030;-63
2022/05/18 06:14:49;;;;;;;;;;;;;;;;;;4918015;28;136909;-63
2022/05/18 06:17:15;;;;;;;;;;;;;;;;;;4914936;28;106598;-63
2022/05/18 06:19:42;;;;;;;;;;;;;;;;;;4914684;28;135919;-64
2022/05/18 06:22:08;;;;;;;;;;;;;;;;;;4914055;28;137726;-63
2022/05/18 06:24:34;;;;;;;;;;;;;;;;;;4914132;28;117595;-64
2022/05/18 06:27:00;;;;;;;;;;;;;;;;;;4923865;28;137734;-63
2022/05/18 06:29:27;;;;;;;;;;;;;;;;;;4918574;28;136189;-64
2022/05/18 06:31:53;;;;;;;;;;;;;;;;;;4920187;28;118502;-63
2022/05/18 06:34:21;;;;;;;;;;;;;;;;;;4913639;28;137067;-63
2022/05/18 06:36:48;;;;;;;;;;;;;;;;;;4917844;28;135780;-63
2022/05/18 06:39:16;;;;;;;;;;;;;;;;;;4917625;28;135194;-63
2022/05/18 06:41:42;;;;;;;;;;;;;;;;;;4917972;28;135778;-63
2022/05/18 06:44:08;;;;;;;;;;;;;;;;;;4917838;28;117736;-63
2022/05/18 06:46:35;;;;;;;;;;;;;;;;;;4917973;28;133481;-64
2022/05/18 06:49:02;;;;;;;;;;;;;;;;;;4917307;28;137113;-63
2022/05/18 06:51:28;;;;;;;;;;;;;;;;;;4928912;28;108639;-63
2022/05/18 06:53:56;;;;;;;;;;;;;;;;;;4954524;28;135383;-63
2022/05/18 06:56:22;;;;;;;;;;;;;;;;;;4932197;28;135167;-64
2022/05/18 06:58:49;;;;;;;;;;;;;;;;;;4921097;28;119553;-63
2022/05/18 07:01:15;;;;;;;;;;;;;;;;;;4916199;28;137049;-64
2022/05/18 07:03:42;;;;;;;;;;;;;;;;;;4917235;28;106340;-63
2022/05/18 07:06:08;;;;;;;;;;;;;;;;;;4916215;28;135981;-64
2022/05/18 07:08:34;;;;;;;;;;;;;;;;;;4915771;28;135751;-65
2022/05/18 07:11:01;;;;;;;;;;;;;;;;;;4916430;28;122768;-64
2022/05/18 07:13:27;;;;;;;;;;;;;;;;;;4916002;28;124724;-64
2022/05/18 07:15:53;;;;;;;;;;;;;;;;;;4915533;28;130591;-64
2022/05/18 07:18:20;;;;;;;;;;;;;;;;;;4916821;28;106642;-64
2022/05/18 07:20:47;;;;;;;;;;;;;;;;;;4919228;28;106881;-64
2022/05/18 07:23:13;;;;;;;;;;;;;;;;;;4915844;28;121985;-64
2022/05/18 07:25:39;;;;;;;;;;;;;;;;;;4921532;28;136524;-63
2022/05/18 07:28:06;;;;;;;;;;;;;;;;;;4928010;28;134566;-64
2022/05/18 07:30:48;;;;;;;;;;;;;;;;;;4931149;28;123382;-63
2022/05/18 07:33:14;;;;;;;;;;;;;;;;;;4915563;28;137156;-64
2022/05/18 07:35:40;;;;;;;;;;;;;;;;;;4914634;28;136902;-64
2022/05/18 07:38:06;;;;;;;;;;;;;;;;;;4915067;28;122962;-63
2022/05/18 07:40:53;;;;;;;;;;;;;;;;;;4915555;28;106899;-64
2022/05/18 07:43:19;;;;;;;;;;;;;;;;;;4919094;28;134469;-64
2022/05/18 07:45:45;;;;;;;;;;;;;;;;;;4916006;28;116387;-64
2022/05/18 07:48:17;;;;;;;;;;;;;;;;;;4915204;28;135743;-64
2022/05/18 07:50:43;;;;;;;;;;;;;;;;;;4914411;28;119389;-64
2022/05/18 07:53:10;;;;;;;;;;;;;;;;;;4914978;28;136594;-63
2022/05/18 07:55:36;;;;;;;;;;;;;;;;;;4924067;28;115675;-64
2022/05/18 07:58:02;;;;;;;;;;;;;;;;;;4935293;28;123775;-64
2022/05/18 08:00:28;;;;;;;;;;;;;;;;;;4928560;28;138157;-64
2022/05/18 08:02:55;;;;;;;;;;;;;;;;;;4914621;28;136903;-64
2022/05/18 08:05:21;;;;;;;;;;;;;;;;;;4917218;28;124443;-65
2022/05/18 08:07:47;;;;;;;;;;;;;;;;;;4914925;28;137223;-64
2022/05/18 08:15:44;;;;;;;;;;;;;;;;;;4914500;28;137955;-64
2022/05/18 08:18:10;;;;;;;;;;;;;;;;;;4914500;28;121943;-64
2022/05/18 08:20:37;;;;;;;;;;;;;;;;;;4915390;28;107458;-64
2022/05/18 08:23:03;;;;;;;;;;;;;;;;;;4915097;28;137227;-65
2022/05/18 08:25:29;;;;;;;;;;;;;;;;;;4925911;28;107865;-64
2022/05/18 08:27:56;;;;;;;;;;;;;;;;;;4921756;28;136680;-64
2022/05/18 08:30:22;;;;;;;;;;;;;;;;;;4913102;28;122119;-65
2022/05/18 08:32:50;;;;;;;;;;;;;;;;;;4914988;28;136983;-64
2022/05/18 08:35:16;;;;;;;;;;;;;;;;;;4916037;28;123613;-64
2022/05/18 08:37:42;;;;;;;;;;;;;;;;;;4914340;28;124737;-64
2022/05/18 08:40:09;;;;;;;;;;;;;;;;;;4914494;28;138048;-65
2022/05/18 08:42:35;;;;;;;;;;;;;;;;;;4913698;28;138575;-63
2022/05/18 08:45:03;;;;;;;;;;;;;;;;;;4914643;28;124264;-63
2022/05/18 08:47:29;;;;;;;;;;;;;;;;;;4918944;28;107181;-65
2022/05/18 08:49:56;;;;;;;;;;;;;;;;;;4914350;28;106522;-63
2022/05/18 08:52:22;;;;;;;;;;;;;;;;;;4913823;28;137265;-64
2022/05/18 08:54:48;;;;;;;;;;;;;;;;;;4917130;28;138282;-63
2022/05/18 08:57:15;;;;;;;;;;;;;;;;;;4933959;28;124805;-63
2022/05/18 08:59:41;;;;;;;;;;;;;;;;;;4917861;28;137456;-64
2022/05/18 09:02:07;;;;;;;;;;;;;;;;;;4914056;28;107736;-64
2022/05/18 09:04:34;;;;;;;;;;;;;;;;;;4913946;28;107606;-64
2022/05/18 09:07:00;;;;;;;;;;;;;;;;;;4914573;28;136081;-63
2022/05/18 09:12:12;;;;;;;;;;;;;;;;;;4914572;28;117486;-64
2022/05/18 09:14:39;;;;;;;;;;;;;;;;;;4932102;28;135584;-64
2022/05/18 09:17:05;;;;;;;;;;;;;;;;;;4914243;28;123631;-64
2022/05/18 09:19:32;;;;;;;;;;;;;;;;;;4912616;28;135687;-63
2022/05/18 09:21:58;;;;;;;;;;;;;;;;;;4913833;28;130957;-63
2022/05/18 09:24:24;;;;;;;;;;;;;;;;;;4913033;28;123955;-64
2022/05/18 09:26:50;;;;;;;;;;;;;;;;;;4933045;28;139064;-63
2022/05/18 09:29:17;;;;;;;;;;;;;;;;;;4916301;28;114042;-64
2022/05/18 09:31:43;;;;;;;;;;;;;;;;;;4916134;28;122454;-64
2022/05/18 09:34:09;;;;;;;;;;;;;;;;;;4912954;28;108101;-63
2022/05/18 09:36:37;;;;;;;;;;;;;;;;;;4914355;28;106402;-63
2022/05/18 09:39:04;;;;;;;;;;;;;;;;;;4913774;28;136125;-67
2022/05/18 09:41:30;;;;;;;;;;;;;;;;;;4913060;28;115313;-64
2022/05/18 09:43:57;;;;;;;;;;;;;;;;;;4912557;28;117332;-64
2022/05/18 09:46:23;;;;;;;;;;;;;;;;;;4913027;28;136880;-64
2022/05/18 09:48:50;;;;;;;;;;;;;;;;;;4911727;28;137809;-66
2022/05/18 09:51:17;;;;;;;;;;;;;;;;;;4912671;28;123753;-64
2022/05/18 09:53:43;;;;;;;;;;;;;;;;;;4917193;28;107647;-64
2022/05/18 09:56:09;;;;;;;;;;;;;;;;;;4925516;28;119253;-63
2022/05/18 09:58:36;;;;;;;;;;;;;;;;;;4913224;28;133699;-63
2022/05/18 10:09:17;;;;;;;;;;;;;;;;;;4911091;28;138446;-63
2022/05/18 10:11:44;;;;;;;;;;;;;;;;;;4912260;28;127350;-64
2022/05/18 10:14:10;;;;;;;;;;;;;;;;;;4912107;28;138348;-63
2022/05/18 10:16:37;;;;;;;;;;;;;;;;;;4915946;28;107164;-63
2022/05/18 10:19:03;;;;;;;;;;;;;;;;;;4911465;28;138484;-67
2022/05/18 10:21:30;;;;;;;;;;;;;;;;;;4911762;28;139865;-63
2022/05/18 10:23:56;;;;;;;;;;;;;;;;;;4912238;28;125179;-63
2022/05/18 10:26:22;;;;;;;;;;;;;;;;;;4912906;28;138617;-63
2022/05/18 10:28:49;;;;;;;;;;;;;;;;;;4911880;28;136977;-63
2022/05/18 10:31:15;;;;;;;;;;;;;;;;;;4913269;28;107143;-63
2022/05/18 10:33:41;;;;;;;;;;;;;;;;;;4918192;28;130526;-63
2022/05/18 10:36:08;;;;;;;;;;;;;;;;;;4915227;28;136809;-64
2022/05/18 10:38:34;;;;;;;;;;;;;;;;;;4911785;28;137605;-64
2022/05/18 10:41:00;;;;;;;;;;;;;;;;;;4913399;28;116126;-64
2022/05/18 10:43:27;;;;;;;;;;;;;;;;;;4911571;28;125056;-63
2022/05/18 10:46:10;;;;;;;;;;;;;;;;;;4921897;28;137507;-63
2022/05/18 10:48:37;;;;;;;;;;;;;;;;;;4929630;28;130819;-63
2022/05/18 10:51:03;;;;;;;;;;;;;;;;;;4922652;28;122347;-65
2022/05/18 10:53:29;;;;;;;;;;;;;;;;;;4927934;28;126010;-63
2022/05/18 10:55:56;;;;;;;;;;;;;;;;;;4911442;28;138371;-63
2022/05/18 10:58:27;;;;;;;;;;;;;;;;;;4914784;28;108476;-64
2022/05/18 11:00:53;;;;;;;;;;;;;;;;;;4911549;28;138548;-64
2022/05/18 11:03:20;;;;;;;;;;;;;;;;;;4910668;28;123105;-63
2022/05/18 11:05:46;;;;;;;;;;;;;;;;;;4911584;28;138603;-63
2022/05/18 11:08:16;;;;;;;;;;;;;;;;;;4911219;28;138803;-63
2022/05/18 11:10:42;;;;;;;;;;;;;;;;;;4912386;28;108228;-63
2022/05/18 11:13:08;;;;;;;;;;;;;;;;;;4911693;28;136933;-64
2022/05/18 11:15:34;;;;;;;;;;;;;;;;;;4911333;28;136715;-64
2022/05/18 11:18:04;;;;;;;;;;;;;;;;;;4911853;28;122406;-63
2022/05/18 11:20:31;;;;;;;;;;;;;;;;;;4917048;28;131411;-63
2022/05/18 11:22:58;;;;;;;;;;;;;;;;;;4915118;28;108165;-64
2022/05/18 11:25:24;;;;;;;;;;;;;;;;;;4912534;28;137593;-63
2022/05/18 11:28:11;;;;;;;;;;;;;;;;;;4914947;28;108994;-63
2022/05/18 11:30:37;;;;;;;;;;;;;;;;;;4914686;28;125031;-63
2022/05/18 11:33:03;;;;;;;;;;;;;;;;;;4914342;28;136683;-63
2022/05/18 11:35:30;;;;;;;;;;;;;;;;;;4915367;28;112731;-63
2022/05/18 11:37:56;;;;;;;;;;;;;;;;;;4914392;28;124630;-63
2022/05/18 11:40:27;;;;;;;;;;;;;;;;;;4913947;28;139200;-64
2022/05/18 11:42:54;;;;;;;;;;;;;;;;;;4918023;28;116955;-63
2022/05/18 11:45:20;;;;;;;;;;;;;;;;;;4913971;28;137973;-63
2022/05/18 11:47:46;;;;;;;;;;;;;;;;;;4913319;28;129688;-63
2022/05/18 11:50:13;;;;;;;;;;;;;;;;;;4913042;28;124441;-63
2022/05/18 11:52:39;;;;;;;;;;;;;;;;;;4932219;28;137898;-63
2022/05/18 11:55:05;;;;;;;;;;;;;;;;;;4918509;28;131231;-63
2022/05/18 11:57:31;;;;;;;;;;;;;;;;;;4913876;28;125680;-63
2022/05/18 11:59:58;;;;;;;;;;;;;;;;;;4915041;28;108581;-63
2022/05/18 12:02:24;;;;;;;;;;;;;;;;;;4913166;28;138824;-63
2022/05/18 12:04:50;;;;;;;;;;;;;;;;;;4917344;28;124572;-63
2022/05/18 12:07:17;;;;;;;;;;;;;;;;;;4913371;28;137971;-63
2022/05/18 12:09:43;;;;;;;;;;;;;;;;;;4914201;28;118058;-63
2022/05/18 12:12:09;;;;;;;;;;;;;;;;;;4912802;28;138907;-63
2022/05/18 12:14:36;;;;;;;;;;;;;;;;;;4913502;28;138509;-66
2022/05/18 12:17:02;;;;;;;;;;;;;;;;;;4914242;28;124316;-65
2022/05/18 12:19:29;;;;;;;;;;;;;;;;;;4914285;28;109493;-63
2022/05/18 12:21:55;;;;;;;;;;;;;;;;;;4920783;28;138303;-63
2022/05/18 12:24:21;;;;;;;;;;;;;;;;;;4917246;28;125350;-67
2022/05/18 12:26:48;;;;;;;;;;;;;;;;;;4913024;28;132551;-65
2022/05/18 12:29:14;;;;;;;;;;;;;;;;;;4914481;28;124370;-65
2022/05/18 12:31:42;;;;;;;;;;;;;;;;;;4912825;28;138157;-65
2022/05/18 12:34:08;;;;;;;;;;;;;;;;;;4926095;28;138363;-65
2022/05/18 12:36:34;;;;;;;;;;;;;;;;;;4912138;28;123529;-65
2022/05/18 12:39:01;;;;;;;;;;;;;;;;;;4914325;28;108506;-64
2022/05/18 12:41:27;;;;;;;;;;;;;;;;;;4912082;28;138931;-63
2022/05/18 12:43:54;;;;;;;;;;;;;;;;;;4913100;28;124438;-64
2022/05/18 12:46:20;;;;;;;;;;;;;;;;;;4915671;28;139404;-63
2022/05/18 12:48:46;;;;;;;;;;;;;;;;;;4912639;28;123206;-63
2022/05/18 12:51:13;;;;;;;;;;;;;;;;;;4912855;28;137607;-63
2022/05/18 12:53:41;;;;;;;;;;;;;;;;;;4913026;28;138923;-63
2022/05/18 12:56:08;;;;;;;;;;;;;;;;;;4913087;28;122717;-64
2022/05/18 12:58:34;;;;;;;;;;;;;;;;;;4913511;28;138057;-65
2022/05/18 13:01:01;;;;;;;;;;;;;;;;;;4911492;28;138722;-64
2022/05/18 13:03:27;;;;;;;;;;;;;;;;;;4911349;28;127412;-63
2022/05/18 13:05:55;;;;;;;;;;;;;;;;;;4914498;28;110108;-63
2022/05/18 13:08:22;;;;;;;;;;;;;;;;;;4935428;28;140739;-65
2022/05/18 13:10:50;;;;;;;;;;;;;;;;;;4931461;28;108521;-63
2022/05/18 13:13:16;;;;;;;;;;;;;;;;;;4911780;28;138011;-63
2022/05/18 13:15:42;;;;;;;;;;;;;;;;;;4912946;28;123579;-63
2022/05/18 13:18:09;;;;;;;;;;;;;;;;;;4911890;28;109216;-64
2022/05/18 13:20:35;;;;;;;;;;;;;;;;;;4913211;28;137501;-63
2022/05/18 13:23:02;;;;;;;;;;;;;;;;;;4913182;28;124953;-64
2022/05/18 13:25:28;;;;;;;;;;;;;;;;;;4911340;28;138452;-63
2022/05/18 13:27:55;;;;;;;;;;;;;;;;;;4911443;28;139363;-63
2022/05/18 13:30:21;;;;;;;;;;;;;;;;;;4933889;28;124353;-66
2022/05/18 13:32:47;;;;;;;;;;;;;;;;;;4916048;28;137159;-63
2022/05/18 13:35:13;;;;;;;;;;;;;;;;;;4913163;28;107592;-63
2022/05/18 13:37:40;;;;;;;;;;;;;;;;;;4911577;28;137586;-64
2022/05/18 13:40:19;;;;;;;;;;;;;;;;;;4925384;28;137888;-63
2022/05/18 13:42:45;;;;;;;;;;;;;;;;;;4911803;28;125263;-64
2022/05/18 13:45:11;;;;;;;;;;;;;;;;;;4911386;28;138406;-63
2022/05/18 13:47:38;;;;;;;;;;;;;;;;;;4909857;28;140127;-64
2022/05/18 13:50:04;;;;;;;;;;;;;;;;;;4911761;28;124955;-67
2022/05/18 13:52:30;;;;;;;;;;;;;;;;;;4934635;28;137539;-63
2022/05/18 13:54:58;;;;;;;;;;;;;;;;;;4915160;28;123920;-64
2022/05/18 13:57:24;;;;;;;;;;;;;;;;;;4911446;28;137361;-63
2022/05/18 13:59:55;;;;;;;;;;;;;;;;;;4911554;28;138092;-63
2022/05/18 14:02:21;;;;;;;;;;;;;;;;;;4911085;28;123985;-67
2022/05/18 14:04:47;;;;;;;;;;;;;;;;;;4911261;28;139145;-63
2022/05/18 14:07:21;;;;;;;;;;;;;;;;;;4911052;28;139264;-65
2022/05/18 14:10:09;;;;;;;;;;;;;;;;;;4911668;28;109873;-63
2022/05/18 14:12:47;;;;;;;;;;;;;;;;;;4911299;28;138535;-64
2022/05/18 14:15:13;;;;;;;;;;;;;;;;;;4913776;28;139163;-63
2022/05/18 14:17:48;;;;;;;;;;;;;;;;;;4910018;28;137518;-63
2022/05/18 14:20:14;;;;;;;;;;;;;;;;;;4916351;28;140786;-63
2022/05/18 14:22:40;;;;;;;;;;;;;;;;;;4927362;28;125456;-63
2022/05/18 14:25:07;;;;;;;;;;;;;;;;;;4925965;28;138807;-63
2022/05/18 14:27:33;;;;;;;;;;;;;;;;;;4911216;28;139804;-63
2022/05/18 14:29:59;;;;;;;;;;;;;;;;;;4911485;28;125732;-63
2022/05/18 14:32:30;;;;;;;;;;;;;;;;;;4911101;28;111971;-63
2022/05/18 14:34:57;;;;;;;;;;;;;;;;;;4914982;28;136705;-63
2022/05/18 14:37:23;;;;;;;;;;;;;;;;;;4910484;28;140106;-63
2022/05/18 14:39:49;;;;;;;;;;;;;;;;;;4908626;28;138004;-63
2022/05/18 14:42:15;;;;;;;;;;;;;;;;;;4910985;28;127641;-63
2022/05/18 14:44:44;;;;;;;;;;;;;;;;;;4911427;28;138680;-63
2022/05/18 14:47:23;;;;;;;;;;;;;;;;;;4910130;28;138649;-64
2022/05/18 14:49:49;;;;;;;;;;;;;;;;;;4911960;28;124906;-63
2022/05/18 14:52:15;;;;;;;;;;;;;;;;;;4930620;28;137655;-63
2022/05/18 14:54:43;;;;;;;;;;;;;;;;;;4923581;28;109704;-63
2022/05/18 14:57:09;;;;;;;;;;;;;;;;;;4915593;28;108270;-64
2022/05/18 14:59:35;;;;;;;;;;;;;;;;;;4912537;28;139544;-64
2022/05/18 15:02:04;;;;;;;;;;;;;;;;;;4915904;28;108175;-63
2022/05/18 15:04:32;;;;;;;;;;;;;;;;;;4914277;28;108913;-63
2022/05/18 15:06:58;;;;;;;;;;;;;;;;;;4921868;28;140285;-66
2022/05/18 15:09:24;;;;;;;;;;;;;;;;;;4914281;28;122488;-64
2022/05/18 15:11:51;;;;;;;;;;;;;;;;;;4914577;28;138755;-63
2022/05/18 15:14:17;;;;;;;;;;;;;;;;;;4913874;28;137728;-63
2022/05/18 15:16:43;;;;;;;;;;;;;;;;;;4914278;28;121224;-63
2022/05/18 15:19:11;;;;;;;;;;;;;;;;;;4916737;28;136941;-63
2022/05/18 15:21:37;;;;;;;;;;;;;;;;;;4913969;28;124834;-64
2022/05/18 15:24:05;;;;;;;;;;;;;;;;;;4914954;28;136977;-67
2022/05/18 15:26:31;;;;;;;;;;;;;;;;;;4913634;28;139394;-64
2022/05/18 15:28:58;;;;;;;;;;;;;;;;;;4914033;28;123624;-63
2022/05/18 15:31:24;;;;;;;;;;;;;;;;;;4914103;28;138403;-63
2022/05/18 15:33:50;;;;;;;;;;;;;;;;;;4912911;28;133338;-63
2022/05/18 15:36:17;;;;;;;;;;;;;;;;;;4925566;28;109688;-63
2022/05/18 15:38:43;;;;;;;;;;;;;;;;;;4913947;28;137372;-64
2022/05/18 15:41:09;;;;;;;;;;;;;;;;;;4916616;28;140057;-63
2022/05/18 15:43:36;;;;;;;;;;;;;;;;;;4914980;28;108840;-63
2022/05/18 15:46:02;;;;;;;;;;;;;;;;;;4914689;28;137881;-63
2022/05/18 15:48:27;;;;;;;;;;;;;;;;;;4914116;28;108111;-65
2022/05/18 15:50:53;;;;;;;;;;;;;;;;;;4913991;28;134729;-63
2022/05/18 15:53:20;;;;;;;;;;;;;;;;;;4912865;28;138737;-63
2022/05/18 15:55:46;;;;;;;;;;;;;;;;;;4913994;28;113406;-63
2022/05/18 15:58:12;;;;;;;;;;;;;;;;;;4913564;28;138333;-65
2022/05/18 16:00:39;;;;;;;;;;;;;;;;;;4921844;28;137750;-63
2022/05/18 16:03:08;;;;;;;;;;;;;;;;;;4916069;28;124721;-66
2022/05/18 16:05:34;;;;;;;;;;;;;;;;;;4918719;28;138490;-66
2022/05/18 16:08:00;;;;;;;;;;;;;;;;;;4923236;28;125713;-65
2022/05/18 16:10:27;;;;;;;;;;;;;;;;;;4912948;28;138461;-65
2022/05/18 16:12:55;;;;;;;;;;;;;;;;;;4913197;28;140220;-65
2022/05/18 16:15:22;;;;;;;;;;;;;;;;;;4917427;28;124738;-65
2022/05/18 16:17:49;;;;;;;;;;;;;;;;;;4913689;28;108598;-64
2022/05/18 16:20:15;;;;;;;;;;;;;;;;;;4913098;28;121107;-63
2022/05/18 16:22:41;;;;;;;;;;;;;;;;;;4913138;28;124781;-63
2022/05/18 16:25:09;;;;;;;;;;;;;;;;;;4916220;28;136877;-63
2022/05/18 16:27:35;;;;;;;;;;;;;;;;;;4913022;28;124736;-64
2022/05/18 16:30:02;;;;;;;;;;;;;;;;;;4912845;28;138639;-64
2022/05/18 16:32:29;;;;;;;;;;;;;;;;;;4913446;28;110946;-64
2022/05/18 16:34:55;;;;;;;;;;;;;;;;;;4916359;28;123181;-63
2022/05/18 16:37:22;;;;;;;;;;;;;;;;;;4916895;28;139507;-65
2022/05/18 16:39:48;;;;;;;;;;;;;;;;;;4913395;28;137277;-63
2022/05/18 16:42:14;;;;;;;;;;;;;;;;;;4913054;28;107895;-63
2022/05/18 16:44:40;;;;;;;;;;;;;;;;;;4916733;28;136759;-64
2022/05/18 16:47:07;;;;;;;;;;;;;;;;;;4913339;28;124193;-63
2022/05/18 16:49:34;;;;;;;;;;;;;;;;;;4914632;28;126095;-63